createdAt,value
2018-09-18T00:04:03.895Z,20.20
2018-09-18T00:14:05.135Z,20.23
2018-09-18T00:24:06.366Z,21.97
2018-09-18T00:34:08.402Z,22.60
2018-09-18T00:44:09.758Z,21.83
2018-09-18T00:54:10.974Z,21.57
2018-09-18T01:04:13.035Z,23.43
2018-09-18T01:14:14.306Z,20.57
2018-09-18T01:24:15.574Z,19.37
2018-09-18T01:34:17.607Z,23.30
2018-09-18T01:44:18.896Z,20.33
2018-09-18T01:54:20.162Z,22.80
2018-09-18T02:04:21.414Z,24.70
2018-09-18T02:14:22.645Z,23.07
2018-09-18T02:24:23.910Z,23.57
2018-09-18T02:34:25.189Z,23.13
2018-09-18T02:44:26.440Z,21.00
2018-09-18T02:54:27.686Z,24.23
2018-09-18T03:04:28.970Z,23.90
2018-09-18T03:14:30.221Z,23.57
2018-09-18T03:24:31.501Z,24.27
2018-09-18T03:34:32.903Z,23.57
2018-09-18T03:44:34.359Z,21.07
2018-09-18T03:54:35.879Z,23.17
2018-09-18T04:04:37.271Z,24.73
2018-09-18T04:14:39.183Z,24.40
2018-09-18T04:24:40.505Z,21.80
2018-09-18T04:34:41.876Z,20.47
2018-09-18T04:44:43.236Z,22.23
2018-09-18T04:54:45.332Z,23.57
2018-09-18T05:04:47.323Z,24.97
2018-09-18T05:14:48.578Z,24.83
2018-09-18T05:24:49.883Z,24.97
2018-09-18T05:34:51.151Z,25.37
2018-09-18T05:44:53.193Z,27.93
2018-09-18T05:54:54.441Z,27.37
2018-09-18T06:04:56.499Z,20.50
2018-09-18T06:14:57.735Z,23.27
2018-09-18T06:24:58.987Z,22.43
2018-09-18T06:35:00.226Z,21.60
2018-09-18T06:45:01.506Z,21.20
2018-09-18T06:55:04.702Z,20.50
2018-09-18T07:05:05.982Z,18.73
2018-09-18T07:15:07.249Z,19.30
2018-09-18T07:25:08.506Z,19.67
2018-09-18T07:35:09.830Z,19.80
2018-09-18T07:45:11.092Z,22.33
2018-09-18T07:55:12.858Z,16.77
2018-09-18T08:05:14.206Z,16.70
2018-09-18T08:15:15.459Z,16.60
2018-09-18T08:25:16.794Z,15.73
2018-09-18T08:35:17.995Z,15.85
2018-09-18T08:45:19.266Z,13.13
2018-09-18T08:55:24.463Z,10.38
2018-09-18T09:05:25.812Z,9.48
2018-09-18T09:15:27.106Z,10.13
2018-09-18T09:25:28.385Z,10.20
2018-09-18T09:35:29.642Z,11.95
2018-09-18T09:45:31.659Z,9.95
2018-09-18T09:55:33.687Z,9.05
2018-09-18T10:05:34.979Z,9.98
2018-09-18T10:15:36.256Z,10.90
2018-09-18T10:25:37.512Z,8.90
2018-09-18T10:35:38.776Z,9.82
2018-09-18T10:45:40.224Z,10.52
2018-09-18T10:55:41.474Z,11.12
2018-09-18T11:05:42.788Z,10.07
2018-09-18T11:15:44.472Z,9.85
2018-09-18T11:25:45.843Z,9.10
2018-09-18T11:35:47.104Z,10.20
2018-09-18T11:45:48.532Z,9.13
2018-09-18T11:55:49.713Z,7.97
2018-09-18T12:05:51.714Z,9.10
2018-09-18T12:15:52.955Z,9.63
2018-09-18T12:25:59.189Z,8.95
2018-09-18T12:36:00.507Z,8.93
2018-09-18T12:46:01.816Z,9.57
2018-09-18T12:56:03.135Z,8.75
2018-09-18T13:06:04.415Z,8.73
2018-09-18T13:16:05.649Z,8.35
2018-09-18T13:26:06.889Z,9.27
2018-09-18T13:36:08.161Z,8.23
2018-09-18T13:46:09.416Z,11.43
2018-09-18T13:56:10.701Z,8.13
2018-09-18T14:06:12.723Z,8.50
2018-09-18T14:16:14.872Z,7.57
2018-09-18T14:26:16.167Z,10.55
2018-09-18T14:36:17.429Z,9.05
2018-09-18T14:46:19.479Z,8.63
2018-09-18T14:56:20.755Z,7.37
2018-09-18T15:06:22.046Z,7.10
2018-09-18T15:16:23.684Z,8.57
2018-09-18T15:26:25.750Z,8.33
2018-09-18T15:36:27.780Z,7.90
2018-09-18T15:46:29.050Z,8.03
2018-09-18T15:56:31.119Z,7.45
2018-09-18T16:06:32.382Z,7.90
2018-09-18T16:16:33.695Z,6.67
2018-09-18T16:26:34.931Z,8.53
2018-09-18T16:36:36.211Z,10.07
2018-09-18T16:46:41.417Z,10.10
2018-09-18T16:56:43.965Z,11.37
2018-09-18T17:06:45.525Z,11.20
2018-09-18T17:16:47.082Z,14.80
2018-09-18T17:36:55.036Z,13.37
2018-09-18T17:46:57.433Z,10.03
2018-09-18T18:07:06.000Z,11.00
2018-09-18T18:17:07.246Z,11.27
2018-09-18T18:27:09.626Z,10.77
2018-09-18T18:37:10.898Z,13.60
2018-09-18T18:47:12.174Z,11.23
2018-09-18T18:57:13.444Z,10.97
2018-09-18T19:07:15.470Z,11.47
2018-09-18T19:17:16.743Z,11.03
2018-09-18T19:27:18.094Z,11.60
2018-09-18T19:37:19.365Z,12.03
2018-09-18T19:47:20.658Z,11.57
2018-09-18T19:57:21.920Z,11.63
2018-09-18T20:07:23.178Z,16.47
2018-09-18T20:17:24.422Z,13.93
2018-09-18T20:27:26.439Z,15.33
2018-09-18T20:37:28.457Z,16.17
2018-09-18T20:47:30.502Z,15.13
2018-09-18T20:57:31.758Z,15.67
2018-09-18T21:07:33.908Z,13.23
2018-09-18T21:17:35.171Z,17.07
2018-09-18T21:27:41.042Z,16.07
2018-09-18T21:37:42.321Z,15.37
2018-09-18T21:47:43.780Z,18.30
2018-09-18T21:57:45.083Z,13.87
2018-09-18T22:07:46.367Z,13.57
2018-09-18T22:17:48.363Z,15.10
2018-09-18T22:27:50.401Z,14.30
2018-09-18T22:37:51.655Z,12.40
2018-09-18T22:47:52.924Z,14.13
2018-09-18T22:57:54.188Z,13.90
2018-09-18T23:07:55.455Z,13.17
2018-09-18T23:17:56.719Z,15.47
2018-09-18T23:27:57.987Z,12.93
2018-09-18T23:38:04.743Z,12.93
2018-09-18T23:48:06.006Z,16.03
2018-09-18T23:58:07.325Z,14.40
